createdAt,value
2022-08-08T00:01:10.525Z,0.93
2022-08-08T00:03:47.287Z,1.00
2022-08-08T00:06:28.378Z,0.93
2022-08-08T00:09:07.996Z,1.08
2022-08-08T00:11:46.931Z,0.93
2022-08-08T00:14:48.048Z,1.00
2022-08-08T00:17:58.242Z,1.10
2022-08-08T00:20:26.511Z,1.10
2022-08-08T00:22:57.775Z,1.02
2022-08-08T00:25:39.127Z,1.00
2022-08-08T00:28:35.928Z,0.93
2022-08-08T00:32:28.663Z,1.10
2022-08-08T00:34:20.033Z,1.20
2022-08-08T00:36:54.984Z,1.05
2022-08-08T00:41:07.708Z,1.10
2022-08-08T00:42:48.882Z,1.10
2022-08-08T00:45:42.425Z,1.25
2022-08-08T00:48:30.161Z,0.98
2022-08-08T00:51:38.206Z,1.08
2022-08-08T00:54:46.994Z,1.10
2022-08-08T00:57:56.992Z,1.10
2022-08-08T01:00:27.842Z,1.20
2022-08-08T01:03:58.026Z,1.05
2022-08-08T01:06:33.099Z,1.20
2022-08-08T01:09:35.433Z,1.10
2022-08-08T01:12:50.742Z,0.98
2022-08-08T01:18:59.125Z,1.15
2022-08-08T01:22:07.195Z,0.95
2022-08-08T01:25:17.628Z,1.15
2022-08-08T01:28:09.451Z,1.00
2022-08-08T01:32:02.963Z,1.10
2022-08-08T01:34:30.993Z,1.20
2022-08-08T01:37:58.205Z,1.10
2022-08-08T01:40:30.814Z,1.10
2022-08-08T01:43:07.244Z,1.02
2022-08-08T01:45:54.535Z,1.10
2022-08-08T01:48:34.051Z,1.10
2022-08-08T01:52:04.484Z,1.20
2022-08-08T01:55:45.427Z,1.20
2022-08-08T01:57:19.402Z,1.13
2022-08-08T02:00:02.263Z,1.20
2022-08-08T02:02:41.391Z,1.30
2022-08-08T02:05:23.159Z,1.08
2022-08-08T02:08:03.888Z,1.00
2022-08-08T02:10:46.898Z,1.15
2022-08-08T02:13:54.748Z,1.10
2022-08-08T02:16:21.331Z,1.10
2022-08-08T02:18:58.898Z,1.10
2022-08-08T02:21:42.670Z,1.20
2022-08-08T02:24:17.055Z,1.10
2022-08-08T02:26:58.007Z,1.10
2022-08-08T02:32:44.064Z,1.08
2022-08-08T02:36:04.525Z,1.20
2022-08-08T02:42:04.693Z,1.00
2022-08-08T02:44:59.299Z,1.20
2022-08-08T02:48:05.109Z,1.20
2022-08-08T02:50:55.686Z,1.20
2022-08-08T02:56:33.049Z,1.10
2022-08-08T03:00:01.631Z,1.10
2022-08-08T03:02:55.581Z,1.20
2022-08-08T03:05:45.248Z,1.17
2022-08-08T03:08:51.727Z,1.07
2022-08-08T03:12:02.802Z,1.20
2022-08-08T03:15:58.109Z,1.08
2022-08-08T03:17:59.808Z,1.20
2022-08-08T03:20:51.667Z,1.33
2022-08-08T03:23:24.607Z,1.20
2022-08-08T03:26:06.800Z,1.30
2022-08-08T03:31:28.428Z,1.20
2022-08-08T03:34:04.897Z,1.08
2022-08-08T03:36:34.636Z,1.17
2022-08-08T03:39:15.232Z,1.17
2022-08-08T03:42:12.931Z,1.15
2022-08-08T03:44:38.757Z,1.20
2022-08-08T03:47:19.706Z,1.20
2022-08-08T03:50:00.894Z,1.20
2022-08-08T03:52:34.111Z,1.13
2022-08-08T03:55:55.216Z,1.10
2022-08-08T03:58:31.721Z,1.10
2022-08-08T04:01:01.676Z,1.25
2022-08-08T04:03:59.155Z,1.33
2022-08-08T04:06:29.826Z,1.13
2022-08-08T04:09:10.389Z,1.10
2022-08-08T04:11:48.539Z,1.20
2022-08-08T04:14:34.806Z,1.10
2022-08-08T04:17:22.813Z,1.00
2022-08-08T04:19:56.550Z,1.30
2022-08-08T04:22:29.426Z,1.17
2022-08-08T04:24:59.444Z,1.20
2022-08-08T04:28:03.326Z,1.10
2022-08-08T04:30:23.892Z,1.02
2022-08-08T04:32:53.449Z,1.00
2022-08-08T04:35:23.297Z,1.33
2022-08-08T04:37:53.200Z,1.00
2022-08-08T04:40:25.265Z,1.40
2022-08-08T04:43:01.575Z,1.17
2022-08-08T04:45:31.462Z,1.20
2022-08-08T04:48:03.608Z,1.20
2022-08-08T04:50:37.802Z,1.20
2022-08-08T04:53:14.311Z,1.20
2022-08-08T04:55:57.879Z,1.10
2022-08-08T04:58:29.901Z,1.20
2022-08-08T05:00:59.358Z,1.20
2022-08-08T05:04:09.527Z,1.35
2022-08-08T05:06:25.784Z,1.05
2022-08-08T05:09:02.707Z,1.35
2022-08-08T05:11:38.927Z,1.20
2022-08-08T05:14:12.893Z,1.30
2022-08-08T05:16:52.483Z,1.02
2022-08-08T05:20:11.366Z,1.25
2022-08-08T05:22:19.226Z,1.42
2022-08-08T05:24:49.481Z,1.30
2022-08-08T05:27:19.255Z,1.25
2022-08-08T05:29:52.267Z,1.30
2022-08-08T05:32:28.052Z,1.30
2022-08-08T05:35:05.142Z,1.20
2022-08-08T05:37:52.278Z,1.30
2022-08-08T05:40:28.432Z,1.25
2022-08-08T05:43:02.092Z,1.30
2022-08-08T05:45:42.859Z,1.20
2022-08-08T05:48:28.495Z,1.40
2022-08-08T05:51:14.596Z,1.25
2022-08-08T05:54:24.107Z,1.30
2022-08-08T05:56:34.937Z,1.40
2022-08-08T05:59:12.674Z,1.10
2022-08-08T06:01:55.443Z,1.20
2022-08-08T06:04:29.621Z,1.30
2022-08-08T06:07:01.899Z,1.10
2022-08-08T06:10:00.532Z,1.17
2022-08-08T06:12:29.612Z,1.10
2022-08-08T06:15:01.100Z,1.10
2022-08-08T06:17:51.564Z,1.20
2022-08-08T06:20:26.198Z,1.30
2022-08-08T06:22:56.338Z,1.10
2022-08-08T06:25:33.119Z,1.10
2022-08-08T06:28:18.031Z,1.00
2022-08-08T06:30:49.785Z,1.20
2022-08-08T06:33:36.954Z,1.30
2022-08-08T06:36:12.046Z,1.10
2022-08-08T06:38:43.974Z,1.38
2022-08-08T06:41:15.443Z,1.10
2022-08-08T06:43:47.652Z,1.35
2022-08-08T06:46:29.991Z,1.20
2022-08-08T06:49:02.215Z,1.13
2022-08-08T06:51:49.068Z,1.20
2022-08-08T06:54:21.121Z,1.00
2022-08-08T06:56:53.031Z,1.30
2022-08-08T06:59:22.493Z,1.20
2022-08-08T07:02:26.610Z,1.25
2022-08-08T07:04:51.728Z,1.00
2022-08-08T07:07:26.105Z,1.27
2022-08-08T07:10:00.915Z,1.02
2022-08-08T07:12:33.310Z,1.02
2022-08-08T07:15:06.621Z,1.10
2022-08-08T07:18:01.877Z,1.10
2022-08-08T07:20:50.485Z,1.10
2022-08-08T07:23:23.483Z,1.30
2022-08-08T07:25:54.437Z,1.30
2022-08-08T07:28:31.453Z,1.20
2022-08-08T07:31:01.417Z,1.23
2022-08-08T07:33:37.890Z,1.15
2022-08-08T07:36:23.685Z,1.00
2022-08-08T07:38:53.919Z,1.10
2022-08-08T07:41:25.190Z,1.20
2022-08-08T07:43:54.851Z,1.10
2022-08-08T07:46:30.715Z,1.10
2022-08-08T07:49:00.622Z,1.10
2022-08-08T07:51:44.931Z,1.10
2022-08-08T07:54:27.150Z,1.10
2022-08-08T07:57:16.969Z,1.15
2022-08-08T07:59:51.277Z,1.10
2022-08-08T08:02:35.349Z,1.20
2022-08-08T08:05:15.014Z,1.08
2022-08-08T08:07:52.943Z,1.10
2022-08-08T08:10:30.575Z,1.20
2022-08-08T08:13:25.789Z,1.10
2022-08-08T08:16:12.656Z,1.30
2022-08-08T08:18:55.608Z,1.27
2022-08-08T08:21:44.038Z,1.20
2022-08-08T08:24:18.882Z,1.40
2022-08-08T08:26:54.847Z,1.05
2022-08-08T08:29:27.980Z,1.20
2022-08-08T08:32:03.267Z,1.10
2022-08-08T08:34:35.492Z,1.20
2022-08-08T08:37:08.362Z,1.25
2022-08-08T08:40:00.968Z,1.17
2022-08-08T08:42:35.644Z,1.10
2022-08-08T08:45:21.709Z,1.27
2022-08-08T08:47:54.723Z,1.20
2022-08-08T08:50:33.520Z,1.25
2022-08-08T08:53:54.438Z,1.10
2022-08-08T08:56:02.421Z,1.08
2022-08-08T08:58:35.496Z,1.20
2022-08-08T09:01:10.230Z,1.23
2022-08-08T09:03:47.884Z,1.20
2022-08-08T09:06:26.549Z,1.35
2022-08-08T09:08:57.583Z,1.40
2022-08-08T09:14:03.217Z,1.10
2022-08-08T09:16:33.298Z,1.30
2022-08-08T09:19:02.738Z,1.00
2022-08-08T09:22:02.948Z,1.00
2022-08-08T09:24:22.239Z,1.20
2022-08-08T09:27:02.542Z,1.10
2022-08-08T09:29:34.169Z,1.17
2022-08-08T09:32:05.816Z,1.25
2022-08-08T09:34:42.166Z,1.33
2022-08-08T09:37:46.314Z,1.45
2022-08-08T09:40:11.791Z,1.23
2022-08-08T09:42:51.444Z,1.02
2022-08-08T09:45:54.875Z,1.10
2022-08-08T09:48:21.928Z,1.20
2022-08-08T09:50:56.708Z,1.20
2022-08-08T09:53:54.377Z,1.20
2022-08-08T09:56:24.938Z,1.25
2022-08-08T09:59:20.185Z,1.13
2022-08-08T10:01:59.120Z,1.20
2022-08-08T10:04:42.095Z,1.20
2022-08-08T10:07:15.718Z,1.20
2022-08-08T10:09:59.132Z,1.20
2022-08-08T10:12:38.616Z,1.10
2022-08-08T10:15:27.341Z,1.02
2022-08-08T10:18:09.057Z,1.20
2022-08-08T10:20:58.193Z,1.10
2022-08-08T10:23:55.598Z,1.50
2022-08-08T10:26:58.534Z,1.10
2022-08-08T10:29:23.178Z,1.05
2022-08-08T10:32:12.297Z,0.95
2022-08-08T10:34:46.330Z,1.10
2022-08-08T10:37:16.131Z,1.10
2022-08-08T10:39:54.706Z,1.27
2022-08-08T10:42:27.382Z,1.30
2022-08-08T10:45:02.707Z,1.00
2022-08-08T10:47:44.010Z,1.00
2022-08-08T10:50:18.273Z,1.00
2022-08-08T10:52:47.725Z,1.10
2022-08-08T10:55:40.918Z,1.20
2022-08-08T11:00:53.205Z,1.30
2022-08-08T11:03:36.461Z,1.20
2022-08-08T11:06:06.245Z,1.17
2022-08-08T11:08:53.610Z,1.25
2022-08-08T11:11:32.026Z,1.15
2022-08-08T11:14:16.341Z,1.20
2022-08-08T11:16:47.933Z,1.70
2022-08-08T11:19:21.078Z,1.00
2022-08-08T11:21:55.604Z,1.23
2022-08-08T11:24:25.696Z,1.20
2022-08-08T11:26:57.166Z,1.60
2022-08-08T11:29:41.397Z,1.30
2022-08-08T11:32:16.862Z,1.10
2022-08-08T11:35:27.957Z,1.20
2022-08-08T11:38:43.485Z,1.80
2022-08-08T11:40:31.454Z,1.30
2022-08-08T11:43:01.147Z,1.30
2022-08-08T11:45:36.736Z,1.20
2022-08-08T11:48:20.273Z,1.20
2022-08-08T11:50:52.801Z,1.10
2022-08-08T11:53:24.218Z,0.98
2022-08-08T11:55:54.109Z,1.20
2022-08-08T11:58:34.880Z,1.20
2022-08-08T12:01:12.491Z,1.30
2022-08-08T12:03:48.213Z,1.38
2022-08-08T12:06:22.245Z,1.23
2022-08-08T12:08:53.792Z,1.10
2022-08-08T12:11:28.506Z,1.27
2022-08-08T12:14:05.826Z,1.20
2022-08-08T12:16:46.612Z,1.15
2022-08-08T12:19:31.206Z,1.20
2022-08-08T12:22:13.211Z,1.10
2022-08-08T12:24:53.907Z,1.17
2022-08-08T12:27:26.538Z,1.10
2022-08-08T12:29:59.007Z,1.27
2022-08-08T12:32:31.393Z,1.38
2022-08-08T12:35:16.885Z,1.30
2022-08-08T12:38:02.915Z,1.23
2022-08-08T12:40:54.083Z,1.17
2022-08-08T12:43:32.960Z,1.40
2022-08-08T12:46:26.424Z,1.23
2022-08-08T12:49:25.173Z,1.10
2022-08-08T12:51:58.876Z,1.25
2022-08-08T12:54:36.532Z,1.30
2022-08-08T12:57:17.695Z,1.23
2022-08-08T13:00:04.421Z,1.10
2022-08-08T13:02:37.030Z,1.20
2022-08-08T13:05:25.669Z,1.20
2022-08-08T13:08:03.951Z,1.30
2022-08-08T13:10:55.709Z,1.20
2022-08-08T13:13:35.005Z,1.15
2022-08-08T13:16:19.546Z,1.13
2022-08-08T13:18:56.970Z,1.25
2022-08-08T13:21:48.641Z,1.20
2022-08-08T13:24:19.068Z,1.15
2022-08-08T13:27:12.282Z,1.30
2022-08-08T13:29:51.068Z,1.20
2022-08-08T13:32:23.590Z,1.10
2022-08-08T13:34:55.687Z,1.20
2022-08-08T13:37:28.058Z,1.25
2022-08-08T13:40:17.969Z,1.10
2022-08-08T13:42:59.679Z,1.30
2022-08-08T13:45:30.893Z,1.20
2022-08-08T13:48:01.006Z,1.30
2022-08-08T13:50:38.335Z,1.20
2022-08-08T13:53:25.077Z,1.20
2022-08-08T13:56:01.543Z,1.40
2022-08-08T13:58:34.625Z,1.00
2022-08-08T14:01:13.850Z,1.20
2022-08-08T14:03:55.176Z,1.50
2022-08-08T14:06:32.866Z,1.20
2022-08-08T14:09:18.474Z,1.20
2022-08-08T14:11:54.429Z,1.13
2022-08-08T14:16:57.281Z,1.30
2022-08-08T14:19:57.403Z,1.15
2022-08-08T14:22:25.804Z,1.30
2022-08-08T14:24:59.854Z,1.10
2022-08-08T14:27:30.823Z,1.10
2022-08-08T14:30:17.294Z,1.38
2022-08-08T14:32:53.129Z,1.23
2022-08-08T14:35:35.908Z,1.10
2022-08-08T14:38:33.064Z,1.10
2022-08-08T14:40:59.075Z,1.20
2022-08-08T14:44:02.577Z,1.30
2022-08-08T14:49:09.377Z,1.17
2022-08-08T14:51:53.350Z,1.10
2022-08-08T14:54:29.343Z,1.30
2022-08-08T14:56:59.360Z,1.10
2022-08-08T14:59:44.732Z,1.00
2022-08-08T15:02:31.022Z,1.10
2022-08-08T15:05:10.680Z,1.30
2022-08-08T15:07:41.551Z,1.10
2022-08-08T15:10:13.050Z,1.10
2022-08-08T15:12:42.686Z,1.10
2022-08-08T15:15:18.822Z,1.10
2022-08-08T15:18:05.972Z,1.00
2022-08-08T15:20:35.553Z,1.02
2022-08-08T15:23:05.887Z,1.10
2022-08-08T15:25:35.352Z,1.00
2022-08-08T15:31:00.865Z,1.05
2022-08-08T15:33:35.544Z,1.10
2022-08-08T15:36:08.682Z,1.10
2022-08-08T15:38:40.595Z,1.10
2022-08-08T15:41:24.601Z,1.00
2022-08-08T15:44:00.526Z,1.38
2022-08-08T15:46:34.811Z,1.10
2022-08-08T15:49:07.481Z,0.95
2022-08-08T15:51:39.414Z,1.00
2022-08-08T15:54:18.306Z,1.10
2022-08-08T15:56:48.496Z,1.30
2022-08-08T15:59:17.945Z,1.00
2022-08-08T16:01:59.762Z,1.17
2022-08-08T16:04:32.740Z,1.10
2022-08-08T16:07:02.276Z,1.10
2022-08-08T16:13:14.182Z,1.03
2022-08-08T16:13:20.429Z,1.00
2022-08-08T16:15:12.503Z,1.10
2022-08-08T16:18:06.341Z,1.17
2022-08-08T16:20:37.975Z,1.02
2022-08-08T16:23:11.632Z,1.33
2022-08-08T16:25:45.761Z,1.00
2022-08-08T16:28:32.637Z,1.10
2022-08-08T16:31:07.651Z,1.08
2022-08-08T16:33:38.678Z,1.30
2022-08-08T16:36:15.770Z,1.17
2022-08-08T16:38:53.566Z,1.17
2022-08-08T16:41:23.562Z,1.13
2022-08-08T16:43:53.691Z,1.30
2022-08-08T16:46:43.680Z,1.20
2022-08-08T16:49:14.194Z,1.10
2022-08-08T16:55:06.929Z,1.20
2022-08-08T16:55:07.217Z,1.10
2022-08-08T16:58:13.201Z,1.23
2022-08-08T17:00:21.473Z,1.10
2022-08-08T17:02:56.671Z,1.35
2022-08-08T17:05:31.304Z,1.23
2022-08-08T17:08:16.869Z,1.20
2022-08-08T17:10:57.489Z,1.20
2022-08-08T17:13:50.003Z,1.30
2022-08-08T17:16:22.295Z,1.08
2022-08-08T17:18:53.910Z,1.20
2022-08-08T17:21:26.073Z,1.10
2022-08-08T17:24:02.736Z,1.17
2022-08-08T17:26:33.126Z,1.20
2022-08-08T17:29:04.476Z,1.10
2022-08-08T17:31:44.243Z,1.40
2022-08-08T17:34:53.490Z,1.08
2022-08-08T17:37:06.689Z,1.10
2022-08-08T17:40:04.944Z,1.05
2022-08-08T17:42:32.716Z,1.00
2022-08-08T17:45:02.739Z,1.20
2022-08-08T17:47:40.256Z,1.10
2022-08-08T17:50:11.159Z,1.00
2022-08-08T17:52:43.103Z,1.05
2022-08-08T17:56:04.774Z,1.10
2022-08-08T17:58:05.190Z,1.30
2022-08-08T18:00:38.971Z,1.00
2022-08-08T18:03:13.096Z,1.20
2022-08-08T18:05:49.076Z,1.00
2022-08-08T18:08:24.901Z,1.10
2022-08-08T18:11:15.301Z,1.20
2022-08-08T18:13:46.417Z,1.25
2022-08-08T18:16:23.099Z,1.10
2022-08-08T18:18:56.641Z,1.02
2022-08-08T18:21:59.050Z,1.00
2022-08-08T18:24:18.944Z,1.30
2022-08-08T18:26:56.634Z,1.20
2022-08-08T18:29:33.167Z,1.13
2022-08-08T18:32:04.561Z,1.20
2022-08-08T18:34:35.090Z,1.10
2022-08-08T18:39:37.849Z,1.20
2022-08-08T18:42:15.691Z,1.30
2022-08-08T18:44:54.863Z,1.33
2022-08-08T18:47:26.001Z,1.50
2022-08-08T18:50:00.365Z,1.75
2022-08-08T18:52:33.929Z,1.70
2022-08-08T18:55:10.209Z,1.50
2022-08-08T18:57:45.374Z,1.30
2022-08-08T19:00:20.123Z,1.30
2022-08-08T19:02:57.083Z,1.35
2022-08-08T19:05:34.006Z,1.40
2022-08-08T19:08:24.821Z,1.50
2022-08-08T19:10:58.883Z,1.40
2022-08-08T19:13:53.891Z,1.30
2022-08-08T19:16:23.618Z,1.38
2022-08-08T19:19:02.033Z,1.20
2022-08-08T19:21:33.297Z,1.20
2022-08-08T19:24:43.617Z,1.20
2022-08-08T19:27:08.761Z,1.35
2022-08-08T19:29:45.746Z,1.50
2022-08-08T19:32:19.637Z,1.17
2022-08-08T19:34:52.919Z,1.20
2022-08-08T19:37:42.725Z,1.10
2022-08-08T19:40:16.271Z,1.30
2022-08-08T19:42:46.173Z,1.20
2022-08-08T19:48:28.779Z,1.40
2022-08-08T19:50:59.044Z,1.30
2022-08-08T19:56:25.709Z,1.35
2022-08-08T19:59:08.129Z,1.30
2022-08-08T20:02:01.843Z,1.40
2022-08-08T20:04:30.327Z,1.40
2022-08-08T20:07:05.406Z,1.58
2022-08-08T20:09:55.888Z,1.50
2022-08-08T20:12:31.939Z,1.38
2022-08-08T20:15:15.072Z,1.50
2022-08-08T20:17:49.867Z,1.50
2022-08-08T20:20:22.212Z,1.67
2022-08-08T20:22:54.052Z,1.73
2022-08-08T20:25:29.780Z,1.70
2022-08-08T20:28:07.103Z,1.65
2022-08-08T20:30:56.111Z,1.85
2022-08-08T20:34:03.608Z,2.00
2022-08-08T20:36:22.308Z,2.00
2022-08-08T20:38:51.967Z,2.22
2022-08-08T20:41:21.410Z,2.30
2022-08-08T20:43:50.972Z,2.15
2022-08-08T20:46:25.639Z,2.22
2022-08-08T20:48:59.916Z,2.25
2022-08-08T20:51:32.443Z,2.10
2022-08-08T20:54:13.976Z,2.17
2022-08-08T20:57:17.153Z,2.22
2022-08-08T20:59:41.200Z,2.25
2022-08-08T21:02:12.441Z,2.13
2022-08-08T21:04:47.649Z,2.20
2022-08-08T21:07:31.231Z,2.10
2022-08-08T21:10:13.091Z,2.05
2022-08-08T21:12:44.548Z,2.10
2022-08-08T21:15:16.780Z,1.95
2022-08-08T21:18:05.549Z,2.17
2022-08-08T21:20:37.705Z,2.10
2022-08-08T21:23:09.292Z,1.90
2022-08-08T21:25:38.913Z,2.10
2022-08-08T21:28:15.036Z,1.90
2022-08-08T21:30:52.042Z,2.00
2022-08-08T21:33:22.078Z,1.95
2022-08-08T21:36:14.505Z,2.08
2022-08-08T21:38:43.516Z,1.90
2022-08-08T21:41:18.521Z,2.00
2022-08-08T21:44:04.302Z,2.00
2022-08-08T21:48:00.658Z,1.70
2022-08-08T21:49:23.162Z,1.90
2022-08-08T21:54:33.037Z,1.80
2022-08-08T21:55:03.469Z,2.00
2022-08-08T21:57:42.902Z,1.80
2022-08-08T22:00:26.191Z,1.80
2022-08-08T22:02:55.788Z,1.73
2022-08-08T22:05:25.290Z,1.48
2022-08-08T22:08:01.686Z,1.67
2022-08-08T22:10:32.528Z,1.67
2022-08-08T22:13:17.736Z,1.83
2022-08-08T22:15:59.487Z,1.60
2022-08-08T22:21:01.576Z,1.50
2022-08-08T22:23:50.362Z,1.60
2022-08-08T22:26:28.754Z,1.60
2022-08-08T22:29:14.966Z,1.73
2022-08-08T22:31:58.214Z,1.40
2022-08-08T22:34:31.623Z,1.70
2022-08-08T22:37:01.080Z,1.80
2022-08-08T22:39:46.332Z,1.60
2022-08-08T22:42:23.901Z,1.95
2022-08-08T22:44:57.072Z,1.60
2022-08-08T22:47:37.556Z,1.90
2022-08-08T22:50:25.415Z,1.60
2022-08-08T22:54:15.753Z,1.70
2022-08-08T22:55:58.722Z,1.77
2022-08-08T22:58:30.865Z,1.80
2022-08-08T23:03:52.557Z,1.85
2022-08-08T23:06:20.130Z,1.90
2022-08-08T23:08:55.576Z,1.90
2022-08-08T23:12:28.968Z,1.90
2022-08-08T23:14:21.139Z,1.83
2022-08-08T23:16:59.067Z,1.80
2022-08-08T23:19:30.897Z,1.90
2022-08-08T23:22:01.620Z,1.80
2022-08-08T23:24:36.330Z,2.00
2022-08-08T23:27:09.663Z,2.00
2022-08-08T23:29:39.318Z,1.98
2022-08-08T23:32:11.715Z,1.90
2022-08-08T23:34:49.586Z,2.00
2022-08-08T23:38:01.960Z,2.00
2022-08-08T23:40:22.052Z,2.00
2022-08-08T23:42:54.904Z,2.20
2022-08-08T23:49:03.021Z,2.00
2022-08-08T23:49:05.324Z,2.00
2022-08-08T23:51:03.182Z,2.00
2022-08-08T23:54:06.319Z,2.05
2022-08-08T23:56:23.839Z,2.20
2022-08-08T23:59:04.241Z,2.10
